Obelix — 7JAX — position and weather

sailwx.info

Track history (hours):
 
Tides and Currents Weather Stations Pressure Air Temp Water Temp Dewpoint Dewpoint Depression Visibility Wind Speed Wind Dir Waves Ship Positions

Obelix

Last reported at 2015-May-03 07:33 UTC. Time now 2015-May-04 06:00 UTC.
Position N 34°41' E 134°45'.

Length 74 m; draft 4.2 m.

Type: Ship (hazmat cat D). MMSI: 432528000.

Date/timePositionNaut miles runAvg speedWind from/ knotsBaromVisibWave heightAir tempDewpointWater temp
2015-May-03 07:33N 34°41' E 134°45'3 0.1
2015-May-02 11:18N 34°40' E 134°48'912.4
2015-May-02 10:32N 34°38' E 134°59'1212.5
2015-May-02 09:33N 34°35' E 135°14'10 9.6
2015-May-02 08:33N 34°33' E 135°25'0 0.1
2015-May-02 07:25N 34°33' E 135°25'0 0.0
2015-May-02 06:31N 34°33' E 135°25'0 0.0
2015-May-02 05:31N 34°33' E 135°25'0 0.0
2015-May-02 04:31N 34°33' E 135°25'0 0.5
2015-May-02 03:33N 34°33' E 135°25'1111.4
2015-May-02 02:33N 34°34' E 135°12'1312.4
2015-May-02 01:30N 34°36' E 134°56'1 0.0
2015-Apr-30 06:20N 34°36' E 134°55'810.1
2015-Apr-30 05:33N 34°36' E 135°04'1111.3
2015-Apr-30 04:33N 34°34' E 135°18'6 5.5
2015-Apr-30 03:24N 34°33' E 135°25'0 0.0
2015-Apr-30 02:30N 34°33' E 135°25'0 0.0
2015-Apr-30 01:24N 34°33' E 135°25'0 0.0
2015-Apr-30 00:30N 34°33' E 135°25'0 0.0
2015-Apr-29 23:30N 34°33' E 135°25'1 1.4
2015-Apr-29 22:33N 34°33' E 135°24'5 4.3
2015-Apr-29 21:30N 34°32' E 135°19'0 0.0
2015-Apr-29 20:30N 34°32' E 135°19'0 0.0
2015-Apr-29 19:20N 34°32' E 135°19'8 9.8
2015-Apr-29 18:33N 34°34' E 135°10'1412.1
2015-Apr-29 17:22N 34°35' E 134°53'  
2015-Apr-26 11:22N 34°13' E 134°41'244 9.0
2015-Apr-25 08:24N 35°03' E 139°30'1011.2
2015-Apr-25 07:33N 35°07' E 139°41'1110.7
2015-Apr-25 06:33N 35°17' E 139°45'10 9.9
2015-Apr-25 05:34N 35°27' E 139°45'4 4.3
2015-Apr-25 04:32N 35°31' E 139°46'0 0.0
2015-Apr-25 03:32N 35°31' E 139°46'0 0.0
2015-Apr-25 02:20N 35°31' E 139°46'0 0.0
2015-Apr-25 01:32N 35°31' E 139°46'0 0.0
2015-Apr-25 00:32N 35°31' E 139°46'0 0.0
2015-Apr-24 23:32N 35°31' E 139°46'3 2.7
2015-Apr-24 22:33N 35°30' E 139°43'2 2.4
2015-Apr-24 21:33N 35°27' E 139°44'0 0.4
2015-Apr-24 20:33N 35°27' E 139°45'9 9.3
2015-Apr-24 19:33N 35°18' E 139°45'1010.4
2015-Apr-24 18:33N 35°07' E 139°46'1110.5
2015-Apr-24 17:33N 34°60' E 139°37'24610.2
2015-Apr-23 17:33N 34°06' E 134°46'  
Track history (hours):
 
Tides and Currents Weather Stations Pressure Air Temp Water Temp Dewpoint Dewpoint Depression Visibility Wind Speed Wind Dir Waves Ship Positions

Obelix

Last reported at 2015-May-03 07:33 UTC. Time now 2015-May-04 06:00 UTC.
Position N 34°41' E 134°45'.

Length 74 m; draft 4.2 m.

Type: Ship (hazmat cat D). MMSI: 432528000.

Date/timePositionNaut miles runAvg speedWind from/ knotsBaromVisibWave heightAir tempDewpointWater temp
2015-May-03 07:33N 34°41' E 134°45'3 0.1
2015-May-02 11:18N 34°40' E 134°48'912.4
2015-May-02 10:32N 34°38' E 134°59'1212.5
2015-May-02 09:33N 34°35' E 135°14'10 9.6
2015-May-02 08:33N 34°33' E 135°25'0 0.1
2015-May-02 07:25N 34°33' E 135°25'0 0.0
2015-May-02 06:31N 34°33' E 135°25'0 0.0
2015-May-02 05:31N 34°33' E 135°25'0 0.0
2015-May-02 04:31N 34°33' E 135°25'0 0.5
2015-May-02 03:33N 34°33' E 135°25'1111.4
2015-May-02 02:33N 34°34' E 135°12'1312.4
2015-May-02 01:30N 34°36' E 134°56'1 0.0
2015-Apr-30 06:20N 34°36' E 134°55'810.1
2015-Apr-30 05:33N 34°36' E 135°04'1111.3
2015-Apr-30 04:33N 34°34' E 135°18'6 5.5
2015-Apr-30 03:24N 34°33' E 135°25'0 0.0
2015-Apr-30 02:30N 34°33' E 135°25'0 0.0
2015-Apr-30 01:24N 34°33' E 135°25'0 0.0
2015-Apr-30 00:30N 34°33' E 135°25'0 0.0
2015-Apr-29 23:30N 34°33' E 135°25'1 1.4
2015-Apr-29 22:33N 34°33' E 135°24'5 4.3
2015-Apr-29 21:30N 34°32' E 135°19'0 0.0
2015-Apr-29 20:30N 34°32' E 135°19'0 0.0
2015-Apr-29 19:20N 34°32' E 135°19'8 9.8
2015-Apr-29 18:33N 34°34' E 135°10'1412.1
2015-Apr-29 17:22N 34°35' E 134°53'  
2015-Apr-26 11:22N 34°13' E 134°41'244 9.0
2015-Apr-25 08:24N 35°03' E 139°30'1011.2
2015-Apr-25 07:33N 35°07' E 139°41'1110.7
2015-Apr-25 06:33N 35°17' E 139°45'10 9.9
2015-Apr-25 05:34N 35°27' E 139°45'4 4.3
2015-Apr-25 04:32N 35°31' E 139°46'0 0.0
2015-Apr-25 03:32N 35°31' E 139°46'0 0.0
2015-Apr-25 02:20N 35°31' E 139°46'0 0.0
2015-Apr-25 01:32N 35°31' E 139°46'0 0.0
2015-Apr-25 00:32N 35°31' E 139°46'0 0.0
2015-Apr-24 23:32N 35°31' E 139°46'3 2.7
2015-Apr-24 22:33N 35°30' E 139°43'2 2.4
2015-Apr-24 21:33N 35°27' E 139°44'0 0.4
2015-Apr-24 20:33N 35°27' E 139°45'9 9.3
2015-Apr-24 19:33N 35°18' E 139°45'1010.4
2015-Apr-24 18:33N 35°07' E 139°46'1110.5
2015-Apr-24 17:33N 34°60' E 139°37'24610.2
2015-Apr-23 17:33N 34°06' E 134°46'  

Dump ship's entire track history